Accueil
METAR-TAF:

METAR-TAF

Aéroports :

Aéroport de Londres-City

Londres, Angleterre

latitude: 51-30N, longitude: 000-03E, altitude: 5 m

Observation

Le bulletin a été fait il y a 24 minutes, à 06:20 UTC
Vent 6 kt de sud-ouest, variant entre sud et ouest
Température 2°C
Humidité 75%
Pression 1024 hPa
Visibilité 10 km ou plus

METAR: EGLC 080620Z AUTO 22006KT 190V260 9999 NCD 02/M02 Q1024

Heure: 06:44 (06:44 UTC)

Prévision

Le bulletin a été fait il y a 1 heure et 47 minutes, à 04:57 UTC
Prévision valable du 08 à 06 UTC au 08 à 15 UTC
Vent 5 kt de ouest/sud-ouest
Visibilité 10 km ou plus
Quelques nuages à une hauteur de 3500 ft
Probabilité 30% :
Temporairement
du 08 à 06 UTC au 08 à 09 UTC
Visibilité: 9000 m

TAF: EGLC 080457Z 0806/0815 24005KT 9999 FEW035 PROB30 TEMPO 0806/0809 9000

Observations et prévisions météorologiques de plus de 4000 aéroports (messages METAR et TAF).

Les stations disponibles sont représentées par des disques jaunes et rouges sur la carte.

Passer la souris dessus pour voir le nom de la station.

Cliquer dessus pour voir les observations et prévisions météorologiques.

Pour changer de carte: cliquez sur les boutons verts avec une croix noire pour zoomer, sur le bouton vert avec un tiret pour effectuer un zoom arrière, ou sur les flèches vertes pour les cartes adjacentes.


METAR-TAF: